createdAt,value
2018-12-25T00:02:05.405Z,102959.80
2018-12-25T00:04:33.878Z,102954.88
2018-12-25T00:07:02.374Z,102946.53
2018-12-25T00:09:30.863Z,102943.52
2018-12-25T00:11:59.365Z,102942.58
2018-12-25T00:14:27.856Z,102935.31
2018-12-25T00:16:56.352Z,102939.52
2018-12-25T00:19:24.833Z,102954.12
2018-12-25T00:21:53.318Z,102957.06
2018-12-25T00:24:22.041Z,102955.27
2018-12-25T00:26:50.528Z,102964.50
2018-12-25T00:29:18.995Z,102955.87
2018-12-25T00:31:47.476Z,102955.66
2018-12-25T00:34:15.964Z,102953.30
2018-12-25T00:36:44.441Z,102955.83
2018-12-25T00:39:13.170Z,102961.70
2018-12-25T00:41:41.651Z,102953.97
2018-12-25T00:44:10.372Z,102953.33
2018-12-25T00:46:38.855Z,102965.25
2018-12-25T00:49:14.585Z,102960.45
2018-12-25T00:51:37.550Z,102964.67
2018-12-25T00:54:06.044Z,102968.84
2018-12-25T00:56:53.856Z,102973.19
2018-12-25T00:59:22.357Z,102965.78
2018-12-25T01:01:50.833Z,102965.97
2018-12-25T01:04:19.327Z,102967.89
2018-12-25T01:06:47.808Z,102956.17
2018-12-25T01:09:16.292Z,102939.61
2018-12-25T01:11:44.768Z,102939.55
2018-12-25T01:14:13.247Z,102939.25
2018-12-25T01:16:41.732Z,102945.77
2018-12-25T01:19:10.461Z,102948.58
2018-12-25T01:21:38.969Z,102959.16
2018-12-25T01:24:07.464Z,102954.06
2018-12-25T01:26:35.944Z,102943.98
2018-12-25T01:29:04.443Z,102949.73
2018-12-25T01:31:32.923Z,102957.62
2018-12-25T01:34:01.414Z,102958.19
2018-12-25T01:36:29.896Z,102964.95
2018-12-25T01:38:58.391Z,102951.73
2018-12-25T01:41:26.878Z,102961.00
2018-12-25T01:43:55.369Z,102967.31
2018-12-25T01:46:23.856Z,102964.12
2018-12-25T01:48:52.363Z,102957.80
2018-12-25T01:51:20.851Z,102955.69
2018-12-25T01:53:49.356Z,102975.54
2018-12-25T01:56:17.834Z,102974.25
2018-12-25T01:58:46.323Z,102982.05
2018-12-25T02:01:14.815Z,102980.25
2018-12-25T02:03:43.531Z,102980.81
2018-12-25T02:06:12.017Z,102984.66
2018-12-25T02:08:40.506Z,102975.13
2018-12-25T02:11:09.021Z,102983.34
2018-12-25T02:13:37.733Z,102986.60
2018-12-25T02:16:06.219Z,102978.94
2018-12-25T02:18:34.704Z,102981.20
2018-12-25T02:21:03.214Z,102981.14
2018-12-25T02:23:31.749Z,102979.78
2018-12-25T02:26:00.242Z,102978.91
2018-12-25T02:28:28.725Z,102981.69
2018-12-25T02:30:57.207Z,102979.69
2018-12-25T02:33:25.688Z,102980.04
2018-12-25T02:35:54.179Z,102978.55
2018-12-25T02:38:22.653Z,102985.34
2018-12-25T02:40:51.157Z,102972.14
2018-12-25T02:43:19.849Z,102975.09
2018-12-25T02:45:48.349Z,102971.36
2018-12-25T02:48:16.835Z,102978.27
2018-12-25T02:50:45.317Z,102977.93
2018-12-25T02:53:13.811Z,102978.91
2018-12-25T02:55:42.304Z,102972.07
2018-12-25T02:58:11.036Z,102970.56
2018-12-25T03:00:39.585Z,102966.52
2018-12-25T03:03:08.075Z,102965.78
2018-12-25T03:05:36.560Z,102961.22
2018-12-25T03:08:05.096Z,102963.25
2018-12-25T03:10:33.552Z,102961.30
2018-12-25T03:13:02.055Z,102961.47
2018-12-25T03:15:30.538Z,102962.61
2018-12-25T03:17:59.032Z,102957.09
2018-12-25T03:20:27.516Z,102963.09
2018-12-25T03:22:56.245Z,102956.66
2018-12-25T03:25:44.113Z,102952.64
2018-12-25T03:28:14.573Z,102941.79
2018-12-25T03:30:43.108Z,102956.28
2018-12-25T03:33:11.591Z,102947.53
2018-12-25T03:35:40.073Z,102948.67
2018-12-25T03:38:08.555Z,102948.22
2018-12-25T03:40:37.036Z,102940.37
2018-12-25T03:43:05.763Z,102935.08
2018-12-25T03:45:34.243Z,102936.95
2018-12-25T03:48:02.747Z,102947.22
2018-12-25T03:50:31.463Z,102934.70
2018-12-25T03:52:59.974Z,102936.77
2018-12-25T03:55:28.473Z,102940.95
2018-12-25T03:57:56.951Z,102938.41
2018-12-25T04:00:25.485Z,102935.24
2018-12-25T04:02:53.950Z,102930.74
2018-12-25T04:05:22.431Z,102925.78
2018-12-25T04:07:50.921Z,102927.59
2018-12-25T04:10:19.409Z,102927.08
2018-12-25T04:12:47.884Z,102925.53
2018-12-25T04:15:16.616Z,102928.75
2018-12-25T04:17:45.095Z,102921.87
2018-12-25T04:20:19.742Z,102910.59
2018-12-25T04:22:43.781Z,102909.30
2018-12-25T04:25:12.284Z,102916.52
2018-12-25T04:27:40.789Z,102919.35
2018-12-25T04:30:09.270Z,102916.72
2018-12-25T04:32:37.758Z,102915.91
2018-12-25T04:35:06.235Z,102914.82
2018-12-25T04:37:34.734Z,102925.19
2018-12-25T04:40:03.278Z,102919.69
2018-12-25T04:42:31.762Z,102925.59
2018-12-25T04:45:00.249Z,102922.44
2018-12-25T04:47:28.743Z,102912.50
2018-12-25T04:49:57.225Z,102915.14
2018-12-25T04:52:25.709Z,102902.70
2018-12-25T04:54:54.214Z,102910.72
2018-12-25T04:57:22.703Z,102902.70
2018-12-25T04:59:51.191Z,102907.75
2018-12-25T05:02:19.670Z,102909.34
2018-12-25T05:04:48.166Z,102909.35
2018-12-25T05:07:16.645Z,102908.84
2018-12-25T05:09:45.125Z,102906.86
2018-12-25T05:12:13.611Z,102912.50
2018-12-25T05:14:42.104Z,102907.06
2018-12-25T05:17:10.580Z,102909.23
2018-12-25T05:19:39.089Z,102919.39
2018-12-25T05:22:07.567Z,102916.05
2018-12-25T05:24:36.061Z,102921.17
2018-12-25T05:27:04.534Z,102919.31
2018-12-25T05:29:33.027Z,102914.56
2018-12-25T05:32:01.501Z,102907.63
2018-12-25T05:34:29.985Z,102914.92
2018-12-25T05:36:58.471Z,102912.77
2018-12-25T05:39:26.953Z,102912.58
2018-12-25T05:41:55.456Z,102900.72
2018-12-25T05:44:23.931Z,102908.73
2018-12-25T05:46:52.430Z,102902.62
2018-12-25T05:49:20.915Z,102898.97
2018-12-25T05:51:49.412Z,102900.83
2018-12-25T05:54:37.232Z,102896.60
2018-12-25T05:57:05.961Z,102898.08
2018-12-25T05:59:34.449Z,102899.09
2018-12-25T06:02:02.935Z,102897.69
2018-12-25T06:04:31.406Z,102900.14
2018-12-25T06:06:59.898Z,102905.38
2018-12-25T06:09:28.625Z,102906.78
2018-12-25T06:11:57.116Z,102916.15
2018-12-25T06:14:25.601Z,102918.91
2018-12-25T06:16:54.092Z,102918.47
2018-12-25T06:19:22.653Z,102916.42
2018-12-25T06:21:51.128Z,102913.39
2018-12-25T06:24:19.625Z,102916.34
2018-12-25T06:26:48.111Z,102919.77
2018-12-25T06:29:16.605Z,102920.39
2018-12-25T06:31:45.085Z,102910.52
2018-12-25T06:34:13.572Z,102910.83
2018-12-25T06:36:42.049Z,102914.36
2018-12-25T06:39:10.539Z,102915.07
2018-12-25T06:41:39.016Z,102914.68
2018-12-25T06:44:07.488Z,102912.11
2018-12-25T06:46:35.990Z,102914.95
2018-12-25T06:49:04.473Z,102910.83
2018-12-25T06:51:32.966Z,102914.95
2018-12-25T06:54:01.452Z,102909.35
2018-12-25T06:56:30.015Z,102907.76
2018-12-25T06:59:00.150Z,102901.54
2018-12-25T07:01:31.814Z,102899.36
2018-12-25T07:04:00.300Z,102899.08
2018-12-25T07:06:28.956Z,102898.45
2018-12-25T07:08:57.360Z,102906.67
2018-12-25T07:11:25.854Z,102905.27
2018-12-25T07:13:57.421Z,102905.86
2018-12-25T07:16:25.827Z,102902.81
2018-12-25T07:18:55.244Z,102906.97
2018-12-25T07:21:23.730Z,102904.59
2018-12-25T07:23:52.218Z,102901.53
2018-12-25T07:26:20.708Z,102900.54
2018-12-25T07:28:49.206Z,102901.23
2018-12-25T07:31:17.694Z,102901.83
2018-12-25T07:33:49.380Z,102909.16
2018-12-25T07:36:17.927Z,102910.33
2018-12-25T07:38:49.324Z,102899.27
2018-12-25T07:41:18.827Z,102903.02
2018-12-25T07:43:47.305Z,102892.66
2018-12-25T07:46:15.802Z,102895.42
2018-12-25T07:48:44.270Z,102885.72
2018-12-25T07:51:20.507Z,102881.18
2018-12-25T07:53:42.972Z,102882.97
2018-12-25T07:56:11.492Z,102883.72
2018-12-25T07:58:39.980Z,102886.23
2018-12-25T08:01:09.451Z,102879.64
2018-12-25T08:03:38.879Z,102886.92
2018-12-25T08:06:07.379Z,102887.23
2018-12-25T08:08:35.880Z,102884.15
2018-12-25T08:11:04.366Z,102885.44
2018-12-25T08:13:32.868Z,102888.82
2018-12-25T08:16:01.346Z,102890.17
2018-12-25T08:18:29.908Z,102894.53
2018-12-25T08:20:58.629Z,102896.28
2018-12-25T08:23:27.114Z,102888.30
2018-12-25T08:25:55.607Z,102880.09
2018-12-25T08:28:24.104Z,102883.25
2018-12-25T08:30:52.883Z,102888.28
2018-12-25T08:33:21.376Z,102884.63
2018-12-25T08:35:52.456Z,102888.67
2018-12-25T08:38:20.944Z,102886.38
2018-12-25T08:40:49.415Z,102885.73
2018-12-25T08:43:17.899Z,102894.01
2018-12-25T08:45:46.384Z,102890.27
2018-12-25T08:48:14.868Z,102889.08
2018-12-25T08:50:43.355Z,102893.10
2018-12-25T08:53:11.828Z,102901.19
2018-12-25T08:55:40.317Z,102899.95
2018-12-25T08:58:08.788Z,102902.97
2018-12-25T09:00:38.227Z,102901.02
2018-12-25T09:03:06.703Z,102906.78
2018-12-25T09:05:35.195Z,102916.53
2018-12-25T09:08:03.671Z,102919.81
2018-12-25T09:10:32.199Z,102914.48
2018-12-25T09:13:00.909Z,102924.47
2018-12-25T09:15:29.691Z,102930.39
2018-12-25T09:17:58.174Z,102928.92
2018-12-25T09:20:26.657Z,102928.81
2018-12-25T09:22:56.120Z,102931.80
2018-12-25T09:25:24.604Z,102928.83
2018-12-25T09:27:53.114Z,102929.34
2018-12-25T09:30:21.609Z,102932.05
2018-12-25T09:32:50.101Z,102930.23
2018-12-25T09:35:18.593Z,102930.36
2018-12-25T09:37:47.068Z,102930.68
2018-12-25T09:40:15.547Z,102927.22
2018-12-25T09:42:44.046Z,102929.02
2018-12-25T09:45:12.557Z,102925.84
2018-12-25T09:47:42.032Z,102921.27
2018-12-25T09:50:10.520Z,102918.69
2018-12-25T09:53:23.679Z,102922.20
2018-12-25T09:55:52.065Z,102920.63
2018-12-25T09:58:20.466Z,102913.11
2018-12-25T10:00:48.854Z,102918.64
2018-12-25T10:03:17.227Z,102913.78
2018-12-25T10:05:45.611Z,102912.87
2018-12-25T10:08:13.987Z,102915.23
2018-12-25T10:10:45.044Z,102909.45
2018-12-25T10:13:19.511Z,102914.98
2018-12-25T10:15:47.897Z,102904.05
2018-12-25T10:18:16.303Z,102901.23
2018-12-25T10:20:44.688Z,102896.01
2018-12-25T10:23:14.021Z,102895.57
2018-12-25T10:25:42.648Z,102899.58
2018-12-25T10:28:11.020Z,102901.41
2018-12-25T10:30:42.436Z,102902.25
2018-12-25T10:33:10.834Z,102906.55
2018-12-25T10:35:39.203Z,102914.50
2018-12-25T10:38:07.648Z,102896.80
2018-12-25T10:40:36.284Z,102900.56
2018-12-25T10:43:04.681Z,102898.76
2018-12-25T10:45:33.062Z,102893.78
2018-12-25T10:48:01.515Z,102888.02
2018-12-25T10:50:29.847Z,102891.59
2018-12-25T10:53:02.317Z,102888.73
2018-12-25T10:55:30.756Z,102900.34
2018-12-25T10:58:00.097Z,102893.50
2018-12-25T11:00:39.352Z,102895.01
2018-12-25T11:03:07.729Z,102898.08
2018-12-25T11:05:37.192Z,102892.65
2018-12-25T11:08:08.495Z,102902.38
2018-12-25T11:10:36.891Z,102896.98
2018-12-25T11:13:05.255Z,102899.38
2018-12-25T11:15:33.842Z,102891.03
2018-12-25T11:18:02.210Z,102892.77
2018-12-25T11:20:30.859Z,102894.78
2018-12-25T11:22:59.228Z,102893.20
2018-12-25T11:25:29.941Z,102883.48
2018-12-25T11:27:58.317Z,102878.97
2018-12-25T11:30:26.711Z,102882.24
2018-12-25T11:32:55.100Z,102870.99
2018-12-25T11:35:23.505Z,102852.59
2018-12-25T11:37:51.880Z,102859.77
2018-12-25T11:40:20.271Z,102858.48
2018-12-25T11:42:49.578Z,102847.80
2018-12-25T11:45:17.990Z,102852.88
2018-12-25T11:47:51.026Z,102853.09
2018-12-25T11:50:19.666Z,102836.52
2018-12-25T11:52:49.997Z,102835.03
2018-12-25T11:55:18.369Z,102836.77
2018-12-25T11:57:46.754Z,102830.98
2018-12-25T12:00:15.131Z,102830.63
2018-12-25T12:02:52.819Z,102836.47
2018-12-25T12:05:21.190Z,102829.63
2018-12-25T12:07:49.581Z,102836.41
2018-12-25T12:10:17.959Z,102836.53
2018-12-25T12:12:46.335Z,102833.66
2018-12-25T12:15:14.713Z,102836.66
2018-12-25T12:17:43.101Z,102835.61
2018-12-25T12:20:11.543Z,102834.14
2018-12-25T12:22:39.979Z,102831.11
2018-12-25T12:25:11.637Z,102836.27
2018-12-25T12:27:39.931Z,102832.58
2018-12-25T12:30:08.384Z,102835.38
2018-12-25T12:32:36.764Z,102836.70
2018-12-25T12:35:05.487Z,102834.91
2018-12-25T12:37:33.861Z,102836.34
2018-12-25T12:40:02.271Z,102834.92
2018-12-25T12:42:30.647Z,102838.66
2018-12-25T12:44:59.028Z,102841.69
2018-12-25T12:47:27.401Z,102839.94
2018-12-25T12:49:55.839Z,102844.01
2018-12-25T12:52:26.103Z,102843.41
2018-12-25T12:54:57.666Z,102841.70
2018-12-25T12:57:26.058Z,102840.91
2018-12-25T12:59:54.441Z,102831.63
2018-12-25T13:02:22.861Z,102833.73
2018-12-25T13:04:51.502Z,102831.88
2018-12-25T13:07:19.888Z,102829.02
2018-12-25T13:09:48.266Z,102828.64
2018-12-25T13:12:16.657Z,102829.73
2018-12-25T13:14:45.053Z,102837.88
2018-12-25T13:17:15.432Z,102837.48
2018-12-25T13:19:47.791Z,102840.91
2018-12-25T13:22:16.175Z,102847.13
2018-12-25T13:24:44.558Z,102847.33
2018-12-25T13:27:12.938Z,102846.66
2018-12-25T13:29:41.311Z,102847.81
2018-12-25T13:32:09.694Z,102842.38
2018-12-25T13:34:38.978Z,102844.14
2018-12-25T13:37:07.349Z,102848.26
2018-12-25T13:39:35.734Z,102849.07
2018-12-25T13:42:05.065Z,102845.80
2018-12-25T13:44:33.441Z,102843.34
2018-12-25T13:47:01.821Z,102846.22
2018-12-25T13:49:30.206Z,102844.43
2018-12-25T13:51:58.583Z,102847.53
2018-12-25T13:54:26.952Z,102846.38
2018-12-25T13:56:55.421Z,102846.73
2018-12-25T13:59:23.771Z,102852.17
2018-12-25T14:01:52.133Z,102849.58
2018-12-25T14:04:20.516Z,102856.08
2018-12-25T14:06:48.889Z,102859.19
2018-12-25T14:09:17.272Z,102849.93
2018-12-25T14:11:45.644Z,102857.59
2018-12-25T14:14:14.020Z,102860.19
2018-12-25T14:16:42.400Z,102864.11
2018-12-25T14:19:11.097Z,102862.05
2018-12-25T14:21:39.477Z,102862.91
2018-12-25T14:24:07.845Z,102859.95
2018-12-25T14:26:36.213Z,102858.98
2018-12-25T14:29:04.582Z,102855.06
2018-12-25T14:31:32.956Z,102855.06
2018-12-25T14:34:01.321Z,102851.19
2018-12-25T14:36:30.039Z,102850.83
2018-12-25T14:38:58.411Z,102850.23
2018-12-25T14:41:26.789Z,102850.83
2018-12-25T14:43:55.153Z,102849.13
2018-12-25T14:46:23.549Z,102853.86
2018-12-25T14:48:51.914Z,102862.70
2018-12-25T14:51:20.359Z,102868.08
2018-12-25T14:53:48.742Z,102870.39
2018-12-25T14:56:17.123Z,102868.02
2018-12-25T14:58:45.513Z,102870.02
2018-12-25T15:01:13.897Z,102869.00
2018-12-25T15:03:42.295Z,102866.03
2018-12-25T15:06:10.710Z,102872.61
2018-12-25T15:08:39.084Z,102864.72
2018-12-25T15:11:07.449Z,102868.25
2018-12-25T15:13:36.065Z,102872.35
2018-12-25T15:16:04.455Z,102871.48
2018-12-25T15:18:32.834Z,102874.16
2018-12-25T15:21:01.212Z,102869.65
2018-12-25T15:23:29.611Z,102874.06
2018-12-25T15:25:58.028Z,102869.20
2018-12-25T15:28:26.710Z,102867.60
2018-12-25T15:30:55.074Z,102874.41
2018-12-25T15:33:23.478Z,102869.24
2018-12-25T15:35:51.843Z,102872.11
2018-12-25T15:38:20.216Z,102869.13
2018-12-25T15:40:48.588Z,102869.95
2018-12-25T15:43:16.961Z,102862.19
2018-12-25T15:45:45.463Z,102864.52
2018-12-25T15:48:13.832Z,102864.37
2018-12-25T15:50:42.221Z,102872.23
2018-12-25T15:53:10.590Z,102873.50
2018-12-25T15:55:38.974Z,102875.74
2018-12-25T15:58:07.716Z,102873.48
2018-12-25T16:00:36.096Z,102872.59
2018-12-25T16:03:04.468Z,102868.77
2018-12-25T16:05:33.785Z,102874.59
2018-12-25T16:08:02.155Z,102865.20
2018-12-25T16:10:30.560Z,102871.17
2018-12-25T16:12:58.936Z,102871.17
2018-12-25T16:15:27.307Z,102865.16
2018-12-25T16:17:55.697Z,102866.67
2018-12-25T16:20:24.384Z,102865.69
2018-12-25T16:22:52.768Z,102866.37
2018-12-25T16:25:21.143Z,102861.73
2018-12-25T16:27:49.525Z,102864.97
2018-12-25T16:30:17.899Z,102869.36
2018-12-25T16:32:46.279Z,102863.25
2018-12-25T16:35:14.659Z,102865.86
2018-12-25T16:37:43.344Z,102866.37
2018-12-25T16:40:11.715Z,102872.34
2018-12-25T16:42:40.106Z,102867.72
2018-12-25T16:45:08.499Z,102869.66
2018-12-25T16:47:36.946Z,102860.34
2018-12-25T16:50:05.696Z,102867.09
2018-12-25T16:52:34.068Z,102871.16
2018-12-25T16:55:02.449Z,102871.31
2018-12-25T16:57:30.817Z,102860.48
2018-12-25T16:59:59.471Z,102860.20
2018-12-25T17:02:27.854Z,102860.73
2018-12-25T17:04:56.235Z,102864.27
2018-12-25T17:07:24.614Z,102873.35
2018-12-25T17:09:53.087Z,102872.75
2018-12-25T17:12:21.497Z,102870.22
2018-12-25T17:14:49.886Z,102862.17
2018-12-25T17:17:18.320Z,102870.56
2018-12-25T17:19:46.716Z,102873.39
2018-12-25T17:22:15.157Z,102878.30
2018-12-25T17:24:43.538Z,102876.52
2018-12-25T17:27:12.856Z,102884.59
2018-12-25T17:29:41.244Z,102881.73
2018-12-25T17:32:09.622Z,102882.76
2018-12-25T17:34:38.020Z,102881.77
2018-12-25T17:37:06.410Z,102875.42
2018-12-25T17:39:34.777Z,102874.13
2018-12-25T17:42:03.178Z,102871.39
2018-12-25T17:44:31.542Z,102869.08
2018-12-25T17:46:59.928Z,102873.02
2018-12-25T17:49:28.305Z,102872.52
2018-12-25T17:51:56.686Z,102874.87
2018-12-25T17:54:25.057Z,102870.05
2018-12-25T17:56:53.513Z,102875.11
2018-12-25T17:59:21.846Z,102878.63
2018-12-25T18:01:50.224Z,102886.22
2018-12-25T18:04:18.629Z,102885.66
2018-12-25T18:06:46.978Z,102886.81
2018-12-25T18:09:15.367Z,102893.80
2018-12-25T18:11:43.770Z,102896.72
2018-12-25T18:14:12.149Z,102903.78
2018-12-25T18:16:40.530Z,102898.17
2018-12-25T18:19:08.908Z,102898.79
2018-12-25T18:21:37.297Z,102900.05
2018-12-25T18:24:05.677Z,102892.02
2018-12-25T18:26:34.096Z,102892.89
2018-12-25T18:29:02.479Z,102895.75
2018-12-25T18:31:30.868Z,102885.26
2018-12-25T18:33:59.249Z,102892.21
2018-12-25T18:36:27.621Z,102887.81
2018-12-25T18:38:56.082Z,102893.60
2018-12-25T18:41:24.460Z,102897.23
2018-12-25T18:43:52.853Z,102894.42
2018-12-25T18:46:21.221Z,102895.41
2018-12-25T18:48:50.629Z,102889.59
2018-12-25T18:51:19.016Z,102889.67
2018-12-25T18:53:47.400Z,102883.46
2018-12-25T18:56:16.017Z,102884.98
2018-12-25T18:58:44.421Z,102876.26
2018-12-25T19:01:12.776Z,102878.64
2018-12-25T19:03:41.164Z,102879.50
2018-12-25T19:06:09.547Z,102864.10
2018-12-25T19:08:37.952Z,102857.66
2018-12-25T19:11:06.330Z,102859.02
2018-12-25T19:13:34.714Z,102846.38
2018-12-25T19:16:03.634Z,102849.23
2018-12-25T19:18:32.016Z,102847.01
2018-12-25T19:21:00.386Z,102850.13
2018-12-25T19:23:28.778Z,102846.66
2018-12-25T19:25:57.151Z,102846.83
2018-12-25T19:28:25.523Z,102849.17
2018-12-25T19:30:53.933Z,102842.36
2018-12-25T19:33:22.316Z,102854.99
2018-12-25T19:35:50.694Z,102854.22
2018-12-25T19:38:19.069Z,102848.10
2018-12-25T19:40:56.360Z,102851.78
2018-12-25T19:43:24.729Z,102849.45
2018-12-25T19:45:53.356Z,102850.96
2018-12-25T19:48:24.834Z,102844.37
2018-12-25T19:50:53.222Z,102844.16
2018-12-25T19:53:23.575Z,102838.75
2018-12-25T19:55:52.035Z,102850.05
2018-12-25T19:58:20.424Z,102855.88
2018-12-25T20:00:48.833Z,102852.80
2018-12-25T20:03:17.280Z,102853.94
2018-12-25T20:05:48.723Z,102857.02
2018-12-25T20:08:41.090Z,102847.12
2018-12-25T20:11:27.421Z,102854.36
2018-12-25T20:13:58.853Z,102851.70
2018-12-25T20:16:44.667Z,102862.12
2018-12-25T20:19:18.744Z,102868.00
2018-12-25T20:22:05.011Z,102861.17
2018-12-25T20:24:55.766Z,102860.05
2018-12-25T20:27:43.590Z,102844.61
2018-12-25T20:30:28.331Z,102842.25
2018-12-25T20:33:14.553Z,102840.44
2018-12-25T20:35:50.619Z,102839.16
2018-12-25T20:38:44.689Z,102845.94
2018-12-25T20:41:35.418Z,102844.34
2018-12-25T20:44:15.055Z,102842.23
2018-12-25T20:47:04.449Z,102838.60
2018-12-25T20:49:54.083Z,102836.87
2018-12-25T20:52:34.309Z,102836.03
2018-12-25T20:55:25.456Z,102830.89
2018-12-25T20:58:23.975Z,102836.53
2018-12-25T21:01:17.286Z,102823.38
2018-12-25T21:04:05.412Z,102826.97
2018-12-25T21:07:10.311Z,102825.81
2018-12-25T21:09:50.556Z,102825.67
2018-12-25T21:12:45.435Z,102831.55
2018-12-25T21:15:40.941Z,102831.42
2018-12-25T21:18:36.565Z,102830.84
2018-12-25T21:21:22.992Z,102835.39
2018-12-25T21:24:27.738Z,102830.89
2018-12-25T21:27:28.869Z,102833.19
2018-12-25T21:29:57.700Z,102834.28
2018-12-25T21:32:26.567Z,102830.27
2018-12-25T21:35:10.050Z,102825.20
2018-12-25T21:37:38.596Z,102824.69
2018-12-25T21:40:07.557Z,102826.30
2018-12-25T21:42:36.535Z,102816.52
2018-12-25T21:45:06.446Z,102816.52
2018-12-25T21:47:34.976Z,102815.02
2018-12-25T21:50:09.397Z,102823.37
2018-12-25T21:52:47.083Z,102819.52
2018-12-25T21:55:18.948Z,102821.19
2018-12-25T21:57:46.608Z,102819.83
2018-12-25T22:00:15.008Z,102815.89
2018-12-25T22:02:43.619Z,102826.69
2018-12-25T22:05:17.744Z,102825.42
2018-12-25T22:07:46.127Z,102819.83
2018-12-25T22:10:14.524Z,102815.19
2018-12-25T22:12:42.900Z,102822.59
2018-12-25T22:15:11.562Z,102827.31
2018-12-25T22:17:39.953Z,102822.49
2018-12-25T22:20:11.376Z,102828.41
2018-12-25T22:22:39.759Z,102826.99
2018-12-25T22:25:08.132Z,102827.20
2018-12-25T22:27:36.521Z,102836.39
2018-12-25T22:30:06.343Z,102822.48
2018-12-25T22:32:34.732Z,102821.11
2018-12-25T22:35:03.403Z,102813.02
2018-12-25T22:37:31.820Z,102810.66
2018-12-25T22:40:00.203Z,102816.48
2018-12-25T22:42:28.575Z,102810.34
2018-12-25T22:45:01.202Z,102807.39
2018-12-25T22:47:29.587Z,102816.56
2018-12-25T22:49:57.963Z,102807.51
2018-12-25T22:52:26.331Z,102816.69
2018-12-25T22:54:54.714Z,102812.72
2018-12-25T22:57:23.176Z,102809.72
2018-12-25T22:59:51.555Z,102809.06
2018-12-25T23:02:21.890Z,102802.24
2018-12-25T23:04:50.269Z,102799.47
2018-12-25T23:07:18.645Z,102808.13
2018-12-25T23:09:47.070Z,102812.37
2018-12-25T23:12:15.442Z,102812.78
2018-12-25T23:14:43.826Z,102809.06
2018-12-25T23:17:12.374Z,102795.84
2018-12-25T23:19:41.393Z,102788.85
2018-12-25T23:22:10.885Z,102794.55
2018-12-25T23:24:39.258Z,102789.31
2018-12-25T23:27:07.630Z,102790.83
2018-12-25T23:29:36.008Z,102791.72
2018-12-25T23:32:04.403Z,102793.80
2018-12-25T23:34:32.784Z,102785.34
2018-12-25T23:37:01.168Z,102791.02
2018-12-25T23:39:29.592Z,102778.68
2018-12-25T23:41:59.469Z,102783.91
2018-12-25T23:44:27.979Z,102776.15
2018-12-25T23:46:56.363Z,102779.88
2018-12-25T23:49:24.766Z,102776.48
2018-12-25T23:51:53.151Z,102780.31
2018-12-25T23:54:21.533Z,102785.08
2018-12-25T23:56:49.943Z,102783.38
2018-12-25T23:59:18.625Z,102784.53
